createdAt,value
2022-12-04T00:00:17.738Z,2.73
2022-12-04T00:01:07.582Z,2.77
2022-12-04T00:01:49.391Z,2.74
2022-12-04T00:02:31.334Z,2.87
2022-12-04T00:03:13.130Z,2.92
2022-12-04T00:04:00.820Z,2.94
2022-12-04T00:04:42.557Z,2.76
2022-12-04T00:05:24.397Z,2.87
2022-12-04T00:06:15.089Z,2.71
2022-12-04T00:06:58.905Z,2.86
2022-12-04T00:07:41.221Z,2.65
2022-12-04T00:08:22.988Z,2.76
2022-12-04T00:09:05.635Z,2.62
2022-12-04T00:09:47.411Z,2.75
2022-12-04T00:10:29.334Z,2.92
2022-12-04T00:11:13.247Z,2.94
2022-12-04T00:11:54.950Z,2.83
2022-12-04T00:12:36.817Z,2.77
2022-12-04T00:13:19.335Z,2.85
2022-12-04T00:14:06.906Z,2.86
2022-12-04T00:15:23.873Z,2.85
2022-12-04T00:15:52.656Z,2.84
2022-12-04T00:16:35.402Z,2.82
2022-12-04T00:17:17.228Z,2.64
2022-12-04T00:17:59.015Z,2.60
2022-12-04T00:18:41.064Z,2.61
2022-12-04T00:19:22.890Z,2.73
2022-12-04T00:20:05.276Z,2.72
2022-12-04T00:20:46.969Z,2.81
2022-12-04T00:21:28.761Z,2.90
2022-12-04T00:22:10.798Z,2.85
2022-12-04T00:22:53.041Z,2.84
2022-12-04T00:23:36.190Z,2.96
2022-12-04T00:24:17.962Z,2.89
2022-12-04T00:24:59.724Z,2.73
2022-12-04T00:25:41.684Z,2.88
2022-12-04T00:26:27.166Z,2.93
2022-12-04T00:27:09.128Z,2.93
2022-12-04T00:27:50.896Z,2.93
2022-12-04T00:28:33.709Z,2.81
2022-12-04T00:29:15.599Z,2.86
2022-12-04T00:29:57.429Z,2.84
2022-12-04T00:30:43.786Z,2.77
2022-12-04T00:31:27.751Z,2.77
2022-12-04T00:32:09.684Z,2.72
2022-12-04T00:32:51.585Z,2.46
2022-12-04T00:33:33.945Z,2.65
2022-12-04T00:34:15.655Z,2.42
2022-12-04T00:34:57.568Z,2.46
2022-12-04T00:35:39.520Z,2.46
2022-12-04T00:36:23.910Z,2.58
2022-12-04T00:37:05.668Z,2.58
2022-12-04T00:37:47.417Z,2.50
2022-12-04T00:38:29.613Z,2.55
2022-12-04T00:39:11.407Z,2.68
2022-12-04T00:39:53.595Z,2.69
2022-12-04T00:40:35.587Z,2.70
2022-12-04T00:41:20.199Z,2.70
2022-12-04T00:42:01.843Z,2.72
2022-12-04T00:42:43.636Z,2.65
2022-12-04T00:43:25.497Z,2.77
2022-12-04T00:44:07.214Z,2.74
2022-12-04T00:44:49.133Z,2.63
2022-12-04T00:45:30.920Z,2.66
2022-12-04T00:46:13.314Z,2.65
2022-12-04T00:46:55.100Z,2.63
2022-12-04T00:47:36.775Z,2.66
2022-12-04T00:48:18.707Z,2.65
2022-12-04T00:49:02.607Z,2.48
2022-12-04T00:49:44.447Z,2.62
2022-12-04T00:50:26.218Z,2.73
2022-12-04T00:51:20.892Z,2.76
2022-12-04T00:52:02.618Z,2.55
2022-12-04T00:52:44.341Z,2.58
2022-12-04T00:53:26.022Z,2.68
2022-12-04T00:54:07.760Z,2.84
2022-12-04T00:54:49.542Z,2.83
2022-12-04T00:55:31.292Z,2.82
2022-12-04T00:56:19.486Z,2.82
2022-12-04T00:57:01.244Z,2.69
2022-12-04T00:57:42.939Z,2.71
2022-12-04T00:58:24.797Z,2.80
2022-12-04T00:59:06.481Z,2.88
2022-12-04T00:59:48.297Z,2.82
2022-12-04T01:00:30.230Z,2.81
2022-12-04T01:01:18.117Z,2.93
2022-12-04T01:02:00.004Z,2.92
2022-12-04T01:02:41.818Z,2.77
2022-12-04T01:03:23.753Z,2.88
2022-12-04T01:04:05.725Z,2.72
2022-12-04T01:04:47.658Z,2.88
2022-12-04T01:05:29.505Z,2.85
2022-12-04T01:06:37.131Z,2.79
2022-12-04T01:07:18.921Z,2.77
2022-12-04T01:08:00.656Z,2.66
2022-12-04T01:08:42.439Z,2.57
2022-12-04T01:09:24.159Z,2.76
2022-12-04T01:10:08.612Z,2.80
2022-12-04T01:10:50.497Z,2.73
2022-12-04T01:11:33.285Z,2.86
2022-12-04T01:12:20.373Z,2.73
2022-12-04T01:13:02.605Z,2.93
2022-12-04T01:13:44.721Z,2.91
2022-12-04T01:14:26.433Z,2.76
2022-12-04T01:15:08.708Z,2.84
2022-12-04T01:15:50.570Z,2.85
2022-12-04T01:16:37.771Z,2.84
2022-12-04T01:17:19.512Z,2.73
2022-12-04T01:18:01.246Z,2.89
2022-12-04T01:18:42.977Z,2.53
2022-12-04T01:19:24.788Z,2.82
2022-12-04T01:20:06.886Z,2.99
2022-12-04T01:20:50.396Z,3.05
2022-12-04T01:21:32.345Z,3.04
2022-12-04T01:22:14.110Z,3.02
2022-12-04T01:22:55.903Z,2.92
2022-12-04T01:23:37.656Z,2.97
2022-12-04T01:24:19.411Z,2.84
2022-12-04T01:25:01.210Z,2.97
2022-12-04T01:25:57.143Z,3.02
2022-12-04T01:26:38.975Z,3.04
2022-12-04T01:27:20.680Z,2.97
2022-12-04T01:28:02.398Z,2.86
2022-12-04T01:28:44.248Z,3.08
2022-12-04T01:29:26.006Z,3.11
2022-12-04T01:30:08.199Z,3.16
2022-12-04T01:31:05.300Z,3.18
2022-12-04T01:31:47.116Z,3.13
2022-12-04T01:32:28.972Z,3.18
2022-12-04T01:33:10.776Z,3.17
2022-12-04T01:33:53.168Z,3.20
2022-12-04T01:34:35.965Z,3.21
2022-12-04T01:35:17.836Z,3.21
2022-12-04T01:36:01.516Z,3.21
2022-12-04T01:36:43.165Z,3.02
2022-12-04T01:37:24.876Z,3.15
2022-12-04T01:38:06.591Z,3.16
2022-12-04T01:38:48.431Z,3.16
2022-12-04T01:39:30.332Z,3.14
2022-12-04T01:40:17.151Z,3.15
2022-12-04T01:40:58.927Z,3.04
2022-12-04T01:41:40.572Z,3.07
2022-12-04T01:42:22.275Z,3.03
2022-12-04T01:43:03.905Z,2.83
2022-12-04T01:43:45.756Z,2.85
2022-12-04T01:44:29.182Z,2.94
2022-12-04T01:45:29.332Z,2.99
2022-12-04T01:46:11.880Z,2.99
2022-12-04T01:46:55.873Z,3.03
2022-12-04T01:47:37.597Z,2.91
2022-12-04T01:48:46.069Z,2.78
2022-12-04T01:49:43.986Z,2.90
2022-12-04T01:50:25.724Z,2.97
2022-12-04T01:51:27.041Z,2.84
2022-12-04T01:52:14.412Z,3.07
2022-12-04T01:52:56.152Z,3.09
2022-12-04T01:53:42.148Z,3.15
2022-12-04T01:54:32.467Z,3.03
2022-12-04T01:55:14.156Z,3.16
2022-12-04T01:55:56.514Z,3.05
2022-12-04T01:56:45.408Z,3.12
2022-12-04T01:57:31.329Z,3.18
2022-12-04T01:58:15.618Z,3.05
2022-12-04T01:59:01.649Z,2.98
2022-12-04T01:59:50.512Z,3.21
2022-12-04T02:00:32.314Z,3.05
2022-12-04T02:01:14.167Z,3.25
2022-12-04T02:02:12.018Z,3.10
2022-12-04T02:02:54.187Z,3.10
2022-12-04T02:03:37.418Z,3.26
2022-12-04T02:04:19.939Z,3.24
2022-12-04T02:05:05.011Z,3.23
2022-12-04T02:05:46.652Z,3.22
2022-12-04T02:06:28.373Z,3.20
2022-12-04T02:07:10.508Z,3.16
2022-12-04T02:07:57.589Z,3.11
2022-12-04T02:08:39.646Z,3.09
2022-12-04T02:09:26.746Z,2.89
2022-12-04T02:10:10.007Z,2.99
2022-12-04T02:10:54.491Z,3.11
2022-12-04T02:11:44.139Z,3.17
2022-12-04T02:12:53.308Z,3.20
2022-12-04T02:13:59.451Z,3.24
2022-12-04T02:15:25.734Z,3.24
2022-12-04T02:16:14.991Z,3.18
2022-12-04T02:17:05.001Z,3.13
2022-12-04T02:18:20.506Z,3.14
2022-12-04T02:19:05.033Z,3.07
2022-12-04T02:19:57.109Z,3.07
2022-12-04T02:20:41.865Z,3.06
2022-12-04T02:21:43.855Z,3.10
2022-12-04T02:22:47.983Z,3.11
2022-12-04T02:23:48.205Z,3.16
2022-12-04T02:24:55.187Z,3.19
2022-12-04T02:26:10.619Z,3.22
2022-12-04T02:27:25.473Z,3.10
2022-12-04T02:28:09.628Z,3.25
2022-12-04T02:29:15.658Z,3.27
2022-12-04T02:30:03.753Z,3.23
2022-12-04T02:30:47.385Z,3.24
2022-12-04T02:31:42.876Z,3.14
2022-12-04T02:32:24.436Z,3.22
2022-12-04T02:33:09.882Z,3.25
2022-12-04T02:34:05.604Z,3.12
2022-12-04T02:34:56.159Z,3.32
2022-12-04T02:35:44.291Z,3.34
2022-12-04T02:36:31.533Z,3.32
2022-12-04T02:37:21.677Z,3.37
2022-12-04T02:38:17.812Z,3.24
2022-12-04T02:39:09.871Z,3.20
2022-12-04T02:39:59.062Z,3.37
2022-12-04T02:40:56.956Z,3.35
2022-12-04T02:42:00.038Z,3.31
2022-12-04T02:42:57.974Z,3.19
2022-12-04T02:43:45.414Z,3.17
2022-12-04T02:44:35.174Z,3.17
2022-12-04T02:45:31.615Z,3.14
2022-12-04T02:46:16.107Z,3.20
2022-12-04T02:47:01.307Z,3.19
2022-12-04T02:47:45.603Z,3.08
2022-12-04T02:48:32.339Z,3.10
2022-12-04T02:49:28.145Z,3.13
2022-12-04T02:50:13.362Z,3.05
2022-12-04T02:50:58.294Z,3.04
2022-12-04T02:51:43.874Z,3.08
2022-12-04T02:52:33.696Z,3.08
2022-12-04T02:53:20.692Z,2.97
2022-12-04T02:54:09.488Z,3.12
2022-12-04T02:54:57.520Z,3.17
2022-12-04T02:55:43.935Z,3.21
2022-12-04T02:56:30.383Z,3.17
2022-12-04T02:57:18.256Z,3.25
2022-12-04T02:58:05.995Z,3.11
2022-12-04T02:58:53.311Z,3.24
2022-12-04T02:59:39.321Z,2.99
2022-12-04T03:00:22.203Z,3.23
2022-12-04T03:01:19.572Z,3.23
2022-12-04T03:02:09.537Z,3.26
2022-12-04T03:03:08.782Z,3.32
2022-12-04T03:04:09.279Z,3.20
2022-12-04T03:04:53.425Z,3.31
2022-12-04T03:05:53.567Z,3.25
2022-12-04T03:06:39.280Z,3.31
2022-12-04T03:07:29.425Z,3.29
2022-12-04T03:08:17.083Z,3.15
2022-12-04T03:09:06.292Z,3.12
2022-12-04T03:09:53.608Z,3.28
2022-12-04T03:10:41.517Z,3.28
2022-12-04T03:11:26.428Z,3.20
2022-12-04T03:12:18.153Z,3.24
2022-12-04T03:13:06.507Z,3.21
2022-12-04T03:13:55.486Z,3.19
2022-12-04T03:14:43.199Z,3.29
2022-12-04T03:15:37.399Z,3.27
2022-12-04T03:16:24.296Z,3.12
2022-12-04T03:17:11.980Z,3.25
2022-12-04T03:18:09.272Z,3.34
2022-12-04T03:19:09.124Z,3.37
2022-12-04T03:19:56.886Z,3.36
2022-12-04T03:20:39.720Z,3.29
2022-12-04T03:21:26.675Z,3.37
2022-12-04T03:22:13.449Z,3.37
2022-12-04T03:23:03.285Z,3.29
2022-12-04T03:23:50.828Z,3.39
2022-12-04T03:24:48.078Z,3.28
2022-12-04T03:25:36.878Z,3.17
2022-12-04T03:26:37.029Z,3.23
2022-12-04T03:27:45.965Z,3.34
2022-12-04T03:28:38.743Z,3.33
2022-12-04T03:29:29.500Z,3.45
2022-12-04T03:30:14.247Z,3.45
2022-12-04T03:31:03.629Z,3.47
2022-12-04T03:31:57.719Z,3.45
2022-12-04T03:32:55.193Z,3.42
2022-12-04T03:33:48.412Z,3.41
2022-12-04T03:34:42.453Z,3.34
2022-12-04T03:35:29.936Z,3.45
2022-12-04T03:36:21.962Z,3.27
2022-12-04T03:37:10.669Z,3.36
2022-12-04T03:38:04.848Z,3.51
2022-12-04T03:39:11.696Z,3.27
2022-12-04T03:40:06.417Z,3.34
2022-12-04T03:41:04.235Z,3.39
2022-12-04T03:42:01.667Z,3.35
2022-12-04T03:42:54.419Z,3.17
2022-12-04T03:43:53.835Z,3.46
2022-12-04T03:44:35.420Z,3.45
2022-12-04T03:45:23.545Z,3.46
2022-12-04T03:46:11.365Z,3.46
2022-12-04T03:47:00.999Z,3.46
2022-12-04T03:47:51.600Z,3.39
2022-12-04T03:48:42.505Z,3.43
2022-12-04T03:49:45.785Z,3.44
2022-12-04T03:50:37.183Z,3.45
2022-12-04T03:51:24.786Z,3.45
2022-12-04T03:52:24.562Z,3.34
2022-12-04T03:53:25.431Z,3.44
2022-12-04T03:54:21.861Z,3.43
2022-12-04T03:55:32.243Z,3.32
2022-12-04T03:56:19.064Z,3.43
2022-12-04T03:57:06.460Z,3.28
2022-12-04T03:57:51.014Z,3.42
2022-12-04T03:58:35.813Z,3.38
2022-12-04T03:59:26.936Z,3.38
2022-12-04T04:00:14.219Z,3.29
2022-12-04T04:00:58.186Z,3.33
2022-12-04T04:01:44.837Z,3.17
2022-12-04T04:02:33.054Z,3.33
2022-12-04T04:03:36.919Z,3.36
2022-12-04T04:04:24.748Z,3.22
2022-12-04T04:05:09.968Z,3.28
2022-12-04T04:05:55.945Z,3.18
2022-12-04T04:06:42.227Z,3.27
2022-12-04T04:07:35.737Z,3.27
2022-12-04T04:08:26.694Z,3.22
2022-12-04T04:09:19.423Z,3.24
2022-12-04T04:10:11.292Z,3.26
2022-12-04T04:11:19.490Z,3.28
2022-12-04T04:12:11.783Z,3.13
2022-12-04T04:13:20.700Z,3.35
2022-12-04T04:14:37.391Z,3.13
2022-12-04T04:15:38.355Z,3.12
2022-12-04T04:16:43.491Z,3.31
2022-12-04T04:17:47.755Z,3.32
2022-12-04T04:18:50.504Z,3.34
2022-12-04T04:19:53.881Z,3.37
2022-12-04T04:21:06.263Z,3.21
2022-12-04T04:22:09.681Z,3.27
2022-12-04T04:23:13.398Z,3.28
2022-12-04T04:24:13.838Z,3.24
2022-12-04T04:25:02.504Z,3.23
2022-12-04T04:25:45.504Z,3.18
2022-12-04T04:26:32.679Z,3.14
2022-12-04T04:27:14.543Z,3.17
2022-12-04T04:27:58.692Z,3.21
2022-12-04T04:28:42.101Z,3.09
2022-12-04T04:29:23.853Z,3.23
2022-12-04T04:30:07.623Z,3.25
2022-12-04T04:30:49.307Z,3.12
2022-12-04T04:31:40.955Z,3.27
2022-12-04T04:32:31.047Z,3.22
2022-12-04T04:33:16.827Z,3.33
2022-12-04T04:34:10.272Z,3.35
2022-12-04T04:35:05.134Z,3.37
2022-12-04T04:35:57.726Z,3.40
2022-12-04T04:37:04.107Z,3.42
2022-12-04T04:37:57.380Z,3.44
2022-12-04T04:39:08.134Z,3.43
2022-12-04T04:39:49.769Z,3.37
2022-12-04T04:40:39.642Z,3.26
2022-12-04T04:41:32.984Z,3.33
2022-12-04T04:42:35.501Z,3.33
2022-12-04T04:43:32.071Z,3.18
2022-12-04T04:44:34.985Z,3.36
2022-12-04T04:45:32.091Z,3.19
2022-12-04T04:46:31.969Z,3.31
2022-12-04T04:47:23.763Z,3.22
2022-12-04T04:48:14.769Z,3.41
2022-12-04T04:49:00.514Z,3.33
2022-12-04T04:49:43.301Z,3.42
2022-12-04T04:50:25.645Z,3.43
2022-12-04T04:51:07.897Z,3.43
2022-12-04T04:51:49.745Z,3.39
2022-12-04T04:52:32.896Z,3.32
2022-12-04T04:53:22.303Z,3.41
2022-12-04T04:54:08.493Z,3.44
2022-12-04T04:54:50.130Z,3.45
2022-12-04T04:55:34.548Z,3.35
2022-12-04T04:56:16.517Z,3.34
2022-12-04T04:56:58.255Z,3.47
2022-12-04T04:57:39.968Z,3.45
2022-12-04T04:58:21.748Z,3.49
2022-12-04T04:59:03.367Z,3.50
2022-12-04T04:59:44.995Z,3.33
2022-12-04T05:00:26.695Z,3.44
2022-12-04T05:01:15.011Z,3.41
2022-12-04T05:01:56.919Z,3.41
2022-12-04T05:02:38.808Z,3.32
2022-12-04T05:03:20.569Z,3.25
2022-12-04T05:04:04.911Z,3.36
2022-12-04T05:04:46.584Z,3.27
2022-12-04T05:05:28.206Z,3.34
2022-12-04T05:06:10.070Z,3.36
2022-12-04T05:06:51.739Z,3.30
2022-12-04T05:07:33.616Z,3.19
2022-12-04T05:08:15.398Z,3.19
2022-12-04T05:08:57.151Z,3.41
2022-12-04T05:09:41.384Z,3.42
2022-12-04T05:10:23.547Z,3.33
2022-12-04T05:11:06.006Z,3.44
2022-12-04T05:11:47.602Z,3.46
2022-12-04T05:12:29.275Z,3.49
2022-12-04T05:13:14.181Z,3.50
2022-12-04T05:13:55.786Z,3.33
2022-12-04T05:14:37.423Z,3.27
2022-12-04T05:15:19.084Z,3.39
2022-12-04T05:16:03.795Z,3.48
2022-12-04T05:16:45.773Z,3.44
2022-12-04T05:17:27.445Z,3.46
2022-12-04T05:18:09.961Z,3.35
2022-12-04T05:19:10.395Z,3.36
2022-12-04T05:19:55.689Z,3.35
2022-12-04T05:20:40.595Z,3.27
2022-12-04T05:21:22.232Z,3.34
2022-12-04T05:22:03.911Z,3.31
2022-12-04T05:22:45.560Z,3.35
2022-12-04T05:23:27.240Z,3.36
2022-12-04T05:24:09.737Z,3.39
2022-12-04T05:24:51.525Z,3.43
2022-12-04T05:25:33.433Z,3.46
2022-12-04T05:26:15.059Z,3.33
2022-12-04T05:26:56.700Z,3.51
2022-12-04T05:27:38.552Z,3.37
2022-12-04T05:28:20.246Z,3.43
2022-12-04T05:29:01.899Z,3.40
2022-12-04T05:29:43.508Z,3.55
2022-12-04T05:30:25.179Z,3.58
2022-12-04T05:31:06.828Z,3.58
2022-12-04T05:31:48.527Z,3.58
2022-12-04T05:32:30.597Z,3.56
2022-12-04T05:33:12.344Z,3.54
2022-12-04T05:33:54.010Z,3.53
2022-12-04T05:34:35.876Z,3.54
2022-12-04T05:35:17.592Z,3.55
2022-12-04T05:36:05.223Z,3.52
2022-12-04T05:36:46.886Z,3.50
2022-12-04T05:37:28.672Z,3.46
2022-12-04T05:38:10.380Z,3.48
2022-12-04T05:38:52.072Z,3.46
2022-12-04T05:39:34.416Z,3.35
2022-12-04T05:40:16.342Z,3.41
2022-12-04T05:40:59.566Z,3.27
2022-12-04T05:41:41.201Z,3.47
2022-12-04T05:42:22.856Z,3.46
2022-12-04T05:43:04.518Z,3.49
2022-12-04T05:43:46.196Z,3.52
2022-12-04T05:44:27.905Z,3.42
2022-12-04T05:45:10.148Z,3.52
2022-12-04T05:45:51.995Z,3.53
2022-12-04T05:46:33.740Z,3.54
2022-12-04T05:47:16.745Z,3.54
2022-12-04T05:47:58.382Z,3.50
2022-12-04T05:48:40.078Z,3.57
2022-12-04T05:49:21.791Z,3.57
2022-12-04T05:50:03.733Z,3.45
2022-12-04T05:50:45.465Z,3.61
2022-12-04T05:51:27.225Z,3.50
2022-12-04T05:52:10.548Z,3.54
2022-12-04T05:52:52.263Z,3.34
2022-12-04T05:53:33.977Z,3.48
2022-12-04T05:54:15.658Z,3.29
2022-12-04T05:54:57.394Z,3.48
2022-12-04T05:55:39.078Z,3.48
2022-12-04T05:56:20.785Z,3.48
2022-12-04T05:57:02.601Z,3.37
2022-12-04T05:57:44.249Z,3.51
2022-12-04T05:58:26.335Z,3.53
2022-12-04T05:59:08.033Z,3.41
2022-12-04T05:59:50.921Z,3.48
2022-12-04T06:00:32.693Z,3.46
2022-12-04T06:01:20.074Z,3.41
2022-12-04T06:02:01.817Z,3.41
2022-12-04T06:02:43.579Z,3.43
2022-12-04T06:03:25.336Z,3.28
2022-12-04T06:04:07.563Z,3.46
2022-12-04T06:04:49.303Z,3.43
2022-12-04T06:05:32.582Z,3.46
2022-12-04T06:06:22.130Z,3.47
2022-12-04T06:07:04.375Z,3.46
2022-12-04T06:07:46.272Z,3.38
2022-12-04T06:08:27.965Z,3.54
2022-12-04T06:09:09.736Z,3.56
2022-12-04T06:09:51.480Z,3.60
2022-12-04T06:10:33.101Z,3.63
2022-12-04T06:11:17.795Z,3.39
2022-12-04T06:11:59.614Z,3.56
2022-12-04T06:12:41.259Z,3.65
2022-12-04T06:13:23.007Z,3.63
2022-12-04T06:14:07.083Z,3.68
2022-12-04T06:14:48.805Z,3.55
2022-12-04T06:15:30.476Z,3.67
2022-12-04T06:16:17.960Z,3.67
2022-12-04T06:16:59.621Z,3.58
2022-12-04T06:17:41.261Z,3.64
2022-12-04T06:18:22.853Z,3.64
2022-12-04T06:19:10.140Z,3.66
2022-12-04T06:19:53.627Z,3.65
2022-12-04T06:20:35.579Z,3.64
2022-12-04T06:21:18.546Z,3.61
2022-12-04T06:22:00.209Z,3.58
2022-12-04T06:22:41.907Z,3.54
2022-12-04T06:23:23.956Z,3.50
2022-12-04T06:24:06.741Z,3.49
2022-12-04T06:24:48.699Z,3.32
2022-12-04T06:25:30.447Z,3.46
2022-12-04T06:26:12.888Z,3.51
2022-12-04T06:28:00.695Z,3.63
2022-12-04T06:28:42.508Z,3.54
2022-12-04T06:29:24.112Z,3.62
2022-12-04T06:30:06.316Z,3.72
2022-12-04T06:30:48.008Z,3.54
2022-12-04T06:31:30.495Z,3.66
2022-12-04T06:32:16.347Z,3.67
2022-12-04T06:33:01.307Z,3.72
2022-12-04T06:33:43.238Z,3.67
2022-12-04T06:34:24.950Z,3.69
2022-12-04T06:35:07.051Z,3.84
2022-12-04T06:35:58.052Z,3.80
2022-12-04T06:36:39.867Z,3.81
2022-12-04T06:37:24.135Z,3.80
2022-12-04T06:38:06.397Z,3.64
2022-12-04T06:38:49.086Z,3.78
2022-12-04T06:39:30.784Z,3.63
2022-12-04T06:40:12.714Z,3.84
2022-12-04T06:40:54.429Z,3.61
2022-12-04T06:41:36.126Z,3.88
2022-12-04T06:42:17.786Z,3.75
2022-12-04T06:42:59.483Z,3.92
2022-12-04T06:43:41.837Z,3.89
2022-12-04T06:44:23.535Z,3.86
2022-12-04T06:45:06.485Z,3.86
2022-12-04T06:45:48.487Z,3.87
2022-12-04T06:46:32.901Z,3.79
2022-12-04T06:47:14.605Z,3.72
2022-12-04T06:47:56.250Z,3.72
2022-12-04T06:48:38.650Z,3.92
2022-12-04T06:49:22.828Z,3.83
2022-12-04T06:50:05.111Z,3.93
2022-12-04T06:50:46.756Z,3.95
2022-12-04T06:51:34.219Z,3.97
2022-12-04T06:52:15.884Z,3.97
2022-12-04T06:52:57.550Z,3.75
2022-12-04T06:53:39.694Z,3.88
2022-12-04T06:57:07.078Z,3.70
2022-12-04T06:57:48.727Z,3.54
2022-12-04T06:58:30.749Z,3.64
2022-12-04T06:59:12.450Z,3.68
2022-12-04T06:59:54.463Z,3.70
2022-12-04T07:00:36.440Z,3.54
2022-12-04T07:01:20.563Z,3.75
2022-12-04T07:02:02.292Z,3.76
2022-12-04T07:02:44.037Z,3.78
2022-12-04T07:03:26.837Z,3.82
2022-12-04T07:04:08.778Z,3.84
2022-12-04T07:04:55.391Z,3.71
2022-12-04T07:05:37.063Z,3.90
2022-12-04T07:06:27.689Z,3.91
2022-12-04T07:07:09.992Z,3.91
2022-12-04T07:07:51.741Z,3.93
2022-12-04T07:08:33.405Z,3.95
2022-12-04T07:09:17.420Z,3.99
2022-12-04T07:09:59.181Z,3.93
2022-12-04T07:10:41.352Z,4.00
2022-12-04T07:11:23.523Z,3.86
2022-12-04T07:12:05.743Z,3.98
2022-12-04T07:12:47.496Z,4.07
2022-12-04T07:13:29.260Z,4.06
2022-12-04T07:14:12.094Z,4.09
2022-12-04T07:14:53.702Z,4.05
2022-12-04T07:15:37.266Z,3.95
2022-12-04T07:16:21.586Z,3.97
2022-12-04T07:17:03.502Z,3.99
2022-12-04T07:17:45.313Z,3.89
2022-12-04T07:18:28.010Z,3.99
2022-12-04T07:19:11.766Z,3.97
2022-12-04T07:19:53.836Z,3.69
2022-12-04T07:20:40.540Z,3.95
2022-12-04T07:21:24.946Z,3.84
2022-12-04T07:22:08.769Z,3.94
2022-12-04T07:22:50.518Z,3.95
2022-12-04T07:23:32.223Z,4.00
2022-12-04T07:24:17.107Z,4.01
2022-12-04T07:24:58.788Z,3.93
2022-12-04T07:25:40.700Z,4.02
2022-12-04T07:26:23.347Z,3.91
2022-12-04T07:27:05.062Z,3.90
2022-12-04T07:27:46.840Z,4.02
2022-12-04T07:28:28.477Z,4.00
2022-12-04T07:29:10.712Z,3.78
2022-12-04T07:29:53.205Z,3.80
2022-12-04T07:30:38.098Z,4.00
2022-12-04T07:31:21.699Z,3.95
2022-12-04T07:32:03.787Z,3.95
2022-12-04T07:32:45.516Z,4.02
2022-12-04T07:33:27.234Z,3.96
2022-12-04T07:34:08.920Z,3.83
2022-12-04T07:34:51.090Z,3.85
2022-12-04T07:35:33.312Z,3.68
2022-12-04T07:36:19.290Z,3.77
2022-12-04T07:37:00.892Z,3.75
2022-12-04T07:37:42.577Z,3.74
2022-12-04T07:38:25.218Z,3.67
2022-12-04T07:39:06.943Z,3.71
2022-12-04T07:39:52.067Z,3.67
2022-12-04T07:40:33.745Z,3.81
2022-12-04T07:41:16.037Z,3.83
2022-12-04T07:41:57.663Z,3.87
2022-12-04T07:42:39.327Z,3.89
2022-12-04T07:43:20.997Z,3.92
2022-12-04T07:44:02.804Z,3.76
2022-12-04T07:44:44.655Z,4.00
2022-12-04T07:45:26.347Z,4.04
2022-12-04T07:46:14.392Z,3.80
2022-12-04T07:46:56.074Z,4.12
2022-12-04T07:47:37.836Z,4.15
2022-12-04T07:48:19.577Z,4.06
2022-12-04T07:49:01.333Z,4.20
2022-12-04T07:49:43.068Z,4.18
2022-12-04T07:50:24.897Z,4.16
2022-12-04T07:51:14.927Z,4.02
2022-12-04T07:51:56.579Z,4.12
2022-12-04T07:52:39.744Z,4.16
2022-12-04T07:53:21.444Z,4.23
2022-12-04T07:54:04.449Z,4.06
2022-12-04T07:54:46.646Z,4.22
2022-12-04T07:55:28.328Z,4.20
2022-12-04T07:56:11.285Z,4.03
2022-12-04T07:56:52.933Z,4.16
2022-12-04T07:57:34.696Z,3.98
2022-12-04T07:58:16.345Z,4.15
2022-12-04T07:58:59.405Z,4.12
2022-12-04T07:59:41.159Z,4.11
2022-12-04T08:00:22.936Z,3.87
2022-12-04T08:01:13.408Z,4.02
2022-12-04T08:01:55.246Z,3.87
2022-12-04T08:02:37.097Z,3.75
2022-12-04T08:03:18.768Z,3.94
2022-12-04T08:04:01.380Z,3.96
2022-12-04T08:04:43.151Z,3.98
2022-12-04T08:05:24.962Z,3.83
2022-12-04T08:06:07.311Z,3.97
2022-12-04T08:06:49.027Z,3.92
2022-12-04T08:07:31.688Z,4.00
2022-12-04T08:08:13.471Z,4.00
2022-12-04T08:08:55.239Z,3.90
2022-12-04T08:09:36.910Z,4.08
2022-12-04T08:10:18.749Z,4.02
2022-12-04T08:11:00.835Z,3.87
2022-12-04T08:11:42.675Z,3.88
2022-12-04T08:12:24.715Z,3.86
2022-12-04T08:13:07.255Z,3.82
2022-12-04T08:13:54.556Z,3.88
2022-12-04T08:14:36.316Z,3.98
2022-12-04T08:15:18.179Z,4.01
2022-12-04T08:16:04.303Z,4.01
2022-12-04T08:16:52.704Z,3.89
2022-12-04T08:17:34.822Z,3.83
2022-12-04T08:18:16.957Z,3.95
2022-12-04T08:19:00.043Z,3.91
2022-12-04T08:19:41.849Z,3.89
2022-12-04T08:20:23.508Z,4.06
2022-12-04T08:21:05.210Z,4.11
2022-12-04T08:21:46.971Z,4.12
2022-12-04T08:22:28.633Z,4.00
2022-12-04T08:23:10.360Z,4.09
2022-12-04T08:23:54.351Z,4.22
2022-12-04T08:24:36.126Z,4.09
2022-12-04T08:25:18.207Z,4.24
2022-12-04T08:26:00.992Z,4.28
2022-12-04T08:26:42.703Z,4.31
2022-12-04T08:27:24.456Z,4.11
2022-12-04T08:28:06.245Z,4.16
2022-12-04T08:28:48.539Z,4.26
2022-12-04T08:29:35.338Z,4.13
2022-12-04T08:30:17.317Z,4.09
2022-12-04T08:31:07.339Z,4.17
2022-12-04T08:31:49.089Z,4.16
2022-12-04T08:32:30.769Z,4.11
2022-12-04T08:33:12.465Z,4.13
2022-12-04T08:33:56.915Z,4.13
2022-12-04T08:34:38.619Z,4.11
2022-12-04T08:35:20.370Z,4.18
2022-12-04T08:36:05.485Z,4.01
2022-12-04T08:36:47.191Z,4.19
2022-12-04T08:37:28.944Z,4.17
2022-12-04T08:38:10.655Z,4.00
2022-12-04T08:38:52.476Z,4.18
2022-12-04T08:39:34.263Z,4.20
2022-12-04T08:40:16.132Z,4.04
2022-12-04T08:41:01.948Z,4.23
2022-12-04T08:41:43.639Z,4.23
2022-12-04T08:42:25.418Z,4.23
2022-12-04T08:43:07.191Z,4.07
2022-12-04T08:43:50.129Z,4.24
2022-12-04T08:44:31.895Z,4.34
2022-12-04T08:45:13.578Z,4.34
2022-12-04T08:45:59.676Z,4.27
2022-12-04T08:46:41.594Z,4.33
2022-12-04T08:47:23.609Z,4.25
2022-12-04T08:48:05.683Z,4.35
2022-12-04T08:48:47.483Z,4.28
2022-12-04T08:49:29.293Z,4.27
2022-12-04T08:50:11.161Z,4.46
2022-12-04T08:50:53.337Z,4.47
2022-12-04T08:51:35.876Z,4.41
2022-12-04T08:52:17.613Z,4.38
2022-12-04T08:52:59.378Z,4.43
2022-12-04T08:53:41.971Z,4.44
2022-12-04T08:54:23.742Z,4.27
2022-12-04T08:55:05.966Z,4.50
2022-12-04T08:55:48.244Z,4.33
2022-12-04T08:56:31.261Z,4.37
2022-12-04T08:57:12.954Z,4.54
2022-12-04T08:57:54.981Z,4.54
2022-12-04T08:58:36.922Z,4.49
2022-12-04T08:59:18.994Z,4.48
2022-12-04T09:00:00.727Z,4.61
2022-12-04T09:00:43.121Z,4.53
2022-12-04T09:01:26.218Z,4.67
2022-12-04T09:02:10.983Z,4.67
2022-12-04T09:02:52.788Z,4.78
2022-12-04T09:03:35.143Z,4.69
2022-12-04T09:04:16.953Z,4.73
2022-12-04T09:04:58.865Z,4.60
2022-12-04T09:05:41.539Z,4.65
2022-12-04T09:06:24.238Z,4.63
2022-12-04T09:07:06.058Z,4.69
2022-12-04T09:07:47.737Z,4.82
2022-12-04T09:08:29.488Z,4.78
2022-12-04T09:09:12.371Z,4.78
2022-12-04T09:09:54.013Z,4.65
2022-12-04T09:10:36.584Z,4.77
2022-12-04T09:11:20.463Z,4.82
2022-12-04T09:12:02.189Z,4.82
2022-12-04T09:12:43.992Z,4.64
2022-12-04T09:13:25.700Z,4.82
2022-12-04T09:14:07.607Z,4.80
2022-12-04T09:14:49.517Z,4.83
2022-12-04T09:15:32.110Z,4.77
2022-12-04T09:16:20.872Z,4.84
2022-12-04T09:17:02.707Z,4.80
2022-12-04T09:17:44.598Z,4.85
2022-12-04T09:18:26.404Z,4.86
2022-12-04T09:19:08.214Z,4.86
2022-12-04T09:19:50.177Z,4.72
2022-12-04T09:20:32.072Z,4.85
2022-12-04T09:21:15.966Z,4.87
2022-12-04T09:21:57.777Z,4.76
2022-12-04T09:23:02.066Z,4.90
2022-12-04T09:23:41.992Z,4.87
2022-12-04T09:24:23.786Z,5.00
2022-12-04T09:25:06.359Z,5.06
2022-12-04T09:25:48.265Z,4.93
2022-12-04T09:26:32.891Z,5.07
2022-12-04T09:27:15.181Z,5.07
2022-12-04T09:27:57.007Z,4.94
2022-12-04T09:28:38.700Z,5.01
2022-12-04T09:29:20.395Z,4.96
2022-12-04T09:30:02.209Z,5.02
2022-12-04T09:30:43.971Z,4.99
2022-12-04T09:31:26.493Z,4.88
2022-12-04T09:32:08.578Z,5.02
2022-12-04T09:32:50.398Z,4.89
2022-12-04T09:33:33.348Z,5.12
2022-12-04T09:34:15.089Z,5.09
2022-12-04T09:34:56.773Z,5.10
2022-12-04T09:35:39.207Z,5.02
2022-12-04T09:36:21.729Z,5.04
2022-12-04T09:37:03.466Z,5.07
2022-12-04T09:37:45.196Z,5.12
2022-12-04T09:38:27.843Z,5.14
2022-12-04T09:39:10.287Z,5.23
2022-12-04T09:39:52.205Z,5.27
2022-12-04T09:40:45.064Z,5.32
2022-12-04T09:41:51.476Z,5.31
2022-12-04T09:42:45.880Z,5.29
2022-12-04T09:43:33.344Z,5.36
2022-12-04T09:44:27.979Z,5.36
2022-12-04T09:45:20.814Z,5.43
2022-12-04T09:46:12.189Z,5.50
2022-12-04T09:47:21.260Z,5.55
2022-12-04T09:48:03.231Z,5.55
2022-12-04T09:48:48.604Z,5.78
2022-12-04T09:49:43.217Z,5.72
2022-12-04T09:50:43.617Z,5.60
2022-12-04T09:51:26.377Z,5.52
2022-12-04T09:52:24.088Z,5.37
2022-12-04T09:53:14.259Z,5.20
2022-12-04T09:54:14.342Z,4.95
2022-12-04T09:54:58.525Z,5.03
2022-12-04T09:55:47.687Z,5.02
2022-12-04T09:56:32.097Z,4.88
2022-12-04T09:57:42.452Z,4.91
2022-12-04T09:58:32.234Z,4.87
2022-12-04T09:59:23.589Z,4.72
2022-12-04T10:00:07.204Z,4.79
2022-12-04T10:00:54.621Z,4.58
2022-12-04T10:01:45.376Z,4.66
2022-12-04T10:02:36.038Z,4.79
2022-12-04T10:03:21.046Z,4.79
2022-12-04T10:04:06.443Z,4.50
2022-12-04T10:04:48.497Z,5.14
2022-12-04T10:05:53.182Z,5.21
2022-12-04T10:06:48.103Z,5.28
2022-12-04T10:07:41.699Z,5.33
2022-12-04T10:08:36.134Z,5.33
2022-12-04T10:09:33.088Z,5.27
2022-12-04T10:10:33.550Z,5.20
2022-12-04T10:11:32.325Z,4.93